sensor_id;sensor_type;location;lat;lon;timestamp;temperature;humidity
51739;DHT22;37815;52.692;6.226;2023-05-07T00:02:57;17.10;96.80
51739;DHT22;37815;52.692;6.226;2023-05-07T00:07:58;17.00;96.80
51739;DHT22;37815;52.692;6.226;2023-05-07T00:12:58;17.00;96.90
51739;DHT22;37815;52.692;6.226;2023-05-07T00:17:59;17.10;96.90
51739;DHT22;37815;52.692;6.226;2023-05-07T00:23:00;16.90;96.90
51739;DHT22;37815;52.692;6.226;2023-05-07T00:28:00;17.00;96.90
51739;DHT22;37815;52.692;6.226;2023-05-07T00:33:04;17.00;96.90
51739;DHT22;37815;52.692;6.226;2023-05-07T00:38:04;17.00;96.90
51739;DHT22;37815;52.692;6.226;2023-05-07T00:43:05;16.90;96.90
51739;DHT22;37815;52.692;6.226;2023-05-07T00:48:06;17.00;97.00
51739;DHT22;37815;52.692;6.226;2023-05-07T00:53:06;16.90;97.00
51739;DHT22;37815;52.692;6.226;2023-05-07T00:58:08;16.90;97.00
51739;DHT22;37815;52.692;6.226;2023-05-07T01:03:09;16.90;97.00
51739;DHT22;37815;52.692;6.226;2023-05-07T01:08:10;16.90;97.00
51739;DHT22;37815;52.692;6.226;2023-05-07T01:13:13;16.90;97.10
51739;DHT22;37815;52.692;6.226;2023-05-07T01:18:14;16.80;97.10
51739;DHT22;37815;52.692;6.226;2023-05-07T01:23:15;16.80;97.10
51739;DHT22;37815;52.692;6.226;2023-05-07T01:28:16;16.80;97.10
51739;DHT22;37815;52.692;6.226;2023-05-07T01:33:20;16.80;97.10
51739;DHT22;37815;52.692;6.226;2023-05-07T01:38:24;16.80;97.10
51739;DHT22;37815;52.692;6.226;2023-05-07T01:43:25;16.70;97.10
51739;DHT22;37815;52.692;6.226;2023-05-07T01:48:26;16.80;97.20
51739;DHT22;37815;52.692;6.226;2023-05-07T01:53:28;16.70;97.20
51739;DHT22;37815;52.692;6.226;2023-05-07T01:58:28;16.70;97.20
51739;DHT22;37815;52.692;6.226;2023-05-07T02:03:29;16.70;97.20
51739;DHT22;37815;52.692;6.226;2023-05-07T02:08:30;16.70;97.20
51739;DHT22;37815;52.692;6.226;2023-05-07T02:13:33;16.60;97.20
51739;DHT22;37815;52.692;6.226;2023-05-07T02:18:35;16.60;97.20
51739;DHT22;37815;52.692;6.226;2023-05-07T02:23:36;16.60;97.20
51739;DHT22;37815;52.692;6.226;2023-05-07T02:28:36;16.60;97.20
51739;DHT22;37815;52.692;6.226;2023-05-07T02:33:37;16.60;97.30
51739;DHT22;37815;52.692;6.226;2023-05-07T02:38:38;16.60;97.30
51739;DHT22;37815;52.692;6.226;2023-05-07T02:43:38;16.60;97.30
51739;DHT22;37815;52.692;6.226;2023-05-07T02:48:41;16.60;97.30
51739;DHT22;37815;52.692;6.226;2023-05-07T02:53:41;16.50;97.30
51739;DHT22;37815;52.692;6.226;2023-05-07T02:58:42;16.60;97.30
51739;DHT22;37815;52.692;6.226;2023-05-07T03:03:43;16.50;97.30
51739;DHT22;37815;52.692;6.226;2023-05-07T03:08:44;16.50;97.30
51739;DHT22;37815;52.692;6.226;2023-05-07T03:13:45;16.50;97.30
51739;DHT22;37815;52.692;6.226;2023-05-07T03:18:45;16.50;97.30
51739;DHT22;37815;52.692;6.226;2023-05-07T03:23:46;16.40;97.30
51739;DHT22;37815;52.692;6.226;2023-05-07T03:28:47;16.40;97.30
51739;DHT22;37815;52.692;6.226;2023-05-07T03:33:53;16.40;97.30
51739;DHT22;37815;52.692;6.226;2023-05-07T03:38:54;16.30;97.30
51739;DHT22;37815;52.692;6.226;2023-05-07T03:43:54;16.30;97.40
51739;DHT22;37815;52.692;6.226;2023-05-07T03:48:55;16.30;97.30
51739;DHT22;37815;52.692;6.226;2023-05-07T03:53:55;16.30;97.40
51739;DHT22;37815;52.692;6.226;2023-05-07T03:58:57;16.30;97.40
51739;DHT22;37815;52.692;6.226;2023-05-07T04:03:58;16.20;97.40
51739;DHT22;37815;52.692;6.226;2023-05-07T04:08:58;16.20;97.40
51739;DHT22;37815;52.692;6.226;2023-05-07T04:13:59;16.20;97.40
51739;DHT22;37815;52.692;6.226;2023-05-07T04:19:00;16.20;97.40
51739;DHT22;37815;52.692;6.226;2023-05-07T04:24:02;16.20;97.40
51739;DHT22;37815;52.692;6.226;2023-05-07T04:29:03;16.20;97.40
51739;DHT22;37815;52.692;6.226;2023-05-07T04:34:04;16.20;97.40
51739;DHT22;37815;52.692;6.226;2023-05-07T04:39:04;16.10;97.30
51739;DHT22;37815;52.692;6.226;2023-05-07T04:44:05;16.20;97.30
51739;DHT22;37815;52.692;6.226;2023-05-07T04:49:06;16.10;97.30
51739;DHT22;37815;52.692;6.226;2023-05-07T04:54:07;16.10;97.30
51739;DHT22;37815;52.692;6.226;2023-05-07T04:59:08;16.10;97.30
51739;DHT22;37815;52.692;6.226;2023-05-07T05:04:08;16.10;97.30
51739;DHT22;37815;52.692;6.226;2023-05-07T05:09:09;16.10;97.30
51739;DHT22;37815;52.692;6.226;2023-05-07T05:14:09;16.00;97.20
51739;DHT22;37815;52.692;6.226;2023-05-07T05:19:12;16.00;97.20
51739;DHT22;37815;52.692;6.226;2023-05-07T05:24:12;16.00;97.20
51739;DHT22;37815;52.692;6.226;2023-05-07T05:29:13;16.00;97.20
51739;DHT22;37815;52.692;6.226;2023-05-07T05:34:13;16.00;97.20
51739;DHT22;37815;52.692;6.226;2023-05-07T05:39:14;16.00;97.20
51739;DHT22;37815;52.692;6.226;2023-05-07T05:44:15;16.00;97.20
51739;DHT22;37815;52.692;6.226;2023-05-07T05:49:15;16.00;97.10
51739;DHT22;37815;52.692;6.226;2023-05-07T05:54:16;16.10;97.10
51739;DHT22;37815;52.692;6.226;2023-05-07T05:59:17;16.00;97.10
51739;DHT22;37815;52.692;6.226;2023-05-07T06:04:17;16.00;97.10
51739;DHT22;37815;52.692;6.226;2023-05-07T06:09:18;16.00;97.10
51739;DHT22;37815;52.692;6.226;2023-05-07T06:14:18;15.90;97.10
51739;DHT22;37815;52.692;6.226;2023-05-07T06:19:19;15.90;97.10
51739;DHT22;37815;52.692;6.226;2023-05-07T06:24:24;15.90;97.10
51739;DHT22;37815;52.692;6.226;2023-05-07T06:29:25;15.90;97.10
51739;DHT22;37815;52.692;6.226;2023-05-07T06:34:30;15.90;97.00
51739;DHT22;37815;52.692;6.226;2023-05-07T06:39:31;15.90;97.00
51739;DHT22;37815;52.692;6.226;2023-05-07T06:44:32;15.90;97.00
51739;DHT22;37815;52.692;6.226;2023-05-07T06:49:32;15.90;97.00
51739;DHT22;37815;52.692;6.226;2023-05-07T06:54:33;16.00;97.00
51739;DHT22;37815;52.692;6.226;2023-05-07T06:59:34;16.00;97.00
51739;DHT22;37815;52.692;6.226;2023-05-07T07:04:34;16.00;97.20
51739;DHT22;37815;52.692;6.226;2023-05-07T07:09:35;16.00;96.90
51739;DHT22;37815;52.692;6.226;2023-05-07T07:14:36;16.20;96.90
51739;DHT22;37815;52.692;6.226;2023-05-07T07:19:36;16.10;96.80
51739;DHT22;37815;52.692;6.226;2023-05-07T07:24:38;16.10;96.70
51739;DHT22;37815;52.692;6.226;2023-05-07T07:29:38;16.10;96.70
51739;DHT22;37815;52.692;6.226;2023-05-07T07:34:39;16.20;96.70
51739;DHT22;37815;52.692;6.226;2023-05-07T07:39:39;16.20;96.60
51739;DHT22;37815;52.692;6.226;2023-05-07T07:44:41;16.20;96.60
51739;DHT22;37815;52.692;6.226;2023-05-07T07:49:41;16.20;96.60
51739;DHT22;37815;52.692;6.226;2023-05-07T07:54:42;16.20;96.60
51739;DHT22;37815;52.692;6.226;2023-05-07T07:59:43;16.30;96.60
51739;DHT22;37815;52.692;6.226;2023-05-07T08:04:44;16.30;96.60
51739;DHT22;37815;52.692;6.226;2023-05-07T08:09:44;16.30;96.60
51739;DHT22;37815;52.692;6.226;2023-05-07T08:14:45;16.30;96.60
51739;DHT22;37815;52.692;6.226;2023-05-07T08:19:46;16.30;96.50
51739;DHT22;37815;52.692;6.226;2023-05-07T08:24:46;16.30;96.50
51739;DHT22;37815;52.692;6.226;2023-05-07T08:29:47;16.40;96.50
51739;DHT22;37815;52.692;6.226;2023-05-07T08:34:48;16.40;96.50
51739;DHT22;37815;52.692;6.226;2023-05-07T08:39:48;16.40;96.60
51739;DHT22;37815;52.692;6.226;2023-05-07T08:44:51;16.50;96.40
51739;DHT22;37815;52.692;6.226;2023-05-07T08:49:55;16.50;96.40
51739;DHT22;37815;52.692;6.226;2023-05-07T08:54:56;16.50;96.30
51739;DHT22;37815;52.692;6.226;2023-05-07T08:59:57;16.60;96.40
51739;DHT22;37815;52.692;6.226;2023-05-07T09:04:57;16.60;96.30
51739;DHT22;37815;52.692;6.226;2023-05-07T09:09:58;16.60;96.30
51739;DHT22;37815;52.692;6.226;2023-05-07T09:14:59;16.70;96.30
51739;DHT22;37815;52.692;6.226;2023-05-07T09:20:05;16.70;96.20
51739;DHT22;37815;52.692;6.226;2023-05-07T09:25:06;16.70;96.30
51739;DHT22;37815;52.692;6.226;2023-05-07T09:30:07;16.80;96.30
51739;DHT22;37815;52.692;6.226;2023-05-07T09:35:16;16.80;96.30
51739;DHT22;37815;52.692;6.226;2023-05-07T09:40:26;16.90;96.30
51739;DHT22;37815;52.692;6.226;2023-05-07T09:45:27;16.80;96.30
51739;DHT22;37815;52.692;6.226;2023-05-07T09:50:30;16.90;96.30
51739;DHT22;37815;52.692;6.226;2023-05-07T09:55:32;16.90;96.20
51739;DHT22;37815;52.692;6.226;2023-05-07T10:00:33;17.00;96.20
51739;DHT22;37815;52.692;6.226;2023-05-07T10:05:34;17.00;96.20
51739;DHT22;37815;52.692;6.226;2023-05-07T10:10:36;17.10;96.20
51739;DHT22;37815;52.692;6.226;2023-05-07T10:15:37;17.20;96.10
51739;DHT22;37815;52.692;6.226;2023-05-07T10:20:39;17.20;96.10
51739;DHT22;37815;52.692;6.226;2023-05-07T10:25:39;17.30;96.10
51739;DHT22;37815;52.692;6.226;2023-05-07T10:35:59;17.40;96.00
51739;DHT22;37815;52.692;6.226;2023-05-07T10:41:01;17.40;96.00
51739;DHT22;37815;52.692;6.226;2023-05-07T10:46:18;17.50;96.00
51739;DHT22;37815;52.692;6.226;2023-05-07T10:51:20;17.60;96.10
51739;DHT22;37815;52.692;6.226;2023-05-07T11:01:53;17.70;95.90
51739;DHT22;37815;52.692;6.226;2023-05-07T11:12:08;17.80;96.10
51739;DHT22;37815;52.692;6.226;2023-05-07T11:17:09;17.90;95.80
51739;DHT22;37815;52.692;6.226;2023-05-07T11:27:37;18.00;95.90
51739;DHT22;37815;52.692;6.226;2023-05-07T11:32:38;18.00;95.80
51739;DHT22;37815;52.692;6.226;2023-05-07T11:37:39;18.00;95.80
51739;DHT22;37815;52.692;6.226;2023-05-07T11:42:40;18.10;95.80
51739;DHT22;37815;52.692;6.226;2023-05-07T11:47:43;18.20;95.80
51739;DHT22;37815;52.692;6.226;2023-05-07T11:52:50;18.20;95.70
51739;DHT22;37815;52.692;6.226;2023-05-07T11:57:52;18.30;95.80
51739;DHT22;37815;52.692;6.226;2023-05-07T12:02:52;18.30;95.70
51739;DHT22;37815;52.692;6.226;2023-05-07T12:07:56;18.40;95.70
51739;DHT22;37815;52.692;6.226;2023-05-07T12:12:57;18.50;95.70
51739;DHT22;37815;52.692;6.226;2023-05-07T12:17:58;18.50;95.70
51739;DHT22;37815;52.692;6.226;2023-05-07T12:22:58;18.60;95.70
51739;DHT22;37815;52.692;6.226;2023-05-07T12:28:01;18.60;95.70
51739;DHT22;37815;52.692;6.226;2023-05-07T12:33:01;18.70;95.70
51739;DHT22;37815;52.692;6.226;2023-05-07T12:38:02;18.70;95.70
51739;DHT22;37815;52.692;6.226;2023-05-07T12:43:04;18.70;95.80
51739;DHT22;37815;52.692;6.226;2023-05-07T12:48:05;18.70;95.80
51739;DHT22;37815;52.692;6.226;2023-05-07T12:53:07;18.70;95.90
51739;DHT22;37815;52.692;6.226;2023-05-07T12:58:20;18.70;95.90
51739;DHT22;37815;52.692;6.226;2023-05-07T13:03:36;18.70;96.00
51739;DHT22;37815;52.692;6.226;2023-05-07T13:08:38;18.70;96.00
51739;DHT22;37815;52.692;6.226;2023-05-07T13:13:41;18.70;96.10
51739;DHT22;37815;52.692;6.226;2023-05-07T13:18:41;18.70;96.10
51739;DHT22;37815;52.692;6.226;2023-05-07T13:23:46;18.80;96.00
51739;DHT22;37815;52.692;6.226;2023-05-07T13:28:47;18.90;96.00
51739;DHT22;37815;52.692;6.226;2023-05-07T13:33:49;18.90;96.00
51739;DHT22;37815;52.692;6.226;2023-05-07T13:38:50;18.90;96.00
51739;DHT22;37815;52.692;6.226;2023-05-07T13:43:51;19.00;95.90
51739;DHT22;37815;52.692;6.226;2023-05-07T13:48:52;19.00;95.90
51739;DHT22;37815;52.692;6.226;2023-05-07T13:53:52;19.10;95.90
51739;DHT22;37815;52.692;6.226;2023-05-07T13:58:54;19.10;95.80
51739;DHT22;37815;52.692;6.226;2023-05-07T14:03:56;19.10;95.80
51739;DHT22;37815;52.692;6.226;2023-05-07T14:08:58;19.20;95.80
51739;DHT22;37815;52.692;6.226;2023-05-07T14:13:58;19.20;95.90
51739;DHT22;37815;52.692;6.226;2023-05-07T14:18:59;19.20;95.90
51739;DHT22;37815;52.692;6.226;2023-05-07T14:23:59;19.20;95.90
51739;DHT22;37815;52.692;6.226;2023-05-07T14:29:00;19.20;96.00
51739;DHT22;37815;52.692;6.226;2023-05-07T14:34:01;19.20;96.00
51739;DHT22;37815;52.692;6.226;2023-05-07T14:39:02;19.20;96.10
51739;DHT22;37815;52.692;6.226;2023-05-07T14:44:03;19.20;96.10
51739;DHT22;37815;52.692;6.226;2023-05-07T14:49:04;19.20;96.10
51739;DHT22;37815;52.692;6.226;2023-05-07T14:54:05;19.20;96.20
51739;DHT22;37815;52.692;6.226;2023-05-07T14:59:06;19.20;96.20
51739;DHT22;37815;52.692;6.226;2023-05-07T15:04:07;19.20;96.30
51739;DHT22;37815;52.692;6.226;2023-05-07T15:09:07;19.20;96.50
51739;DHT22;37815;52.692;6.226;2023-05-07T15:14:09;19.20;96.30
51739;DHT22;37815;52.692;6.226;2023-05-07T15:19:10;19.20;96.30
51739;DHT22;37815;52.692;6.226;2023-05-07T15:24:10;19.20;96.30
51739;DHT22;37815;52.692;6.226;2023-05-07T15:29:11;19.20;96.30
51739;DHT22;37815;52.692;6.226;2023-05-07T15:34:14;19.20;96.30
51739;DHT22;37815;52.692;6.226;2023-05-07T15:39:15;19.20;96.40
51739;DHT22;37815;52.692;6.226;2023-05-07T15:44:16;19.20;96.40
51739;DHT22;37815;52.692;6.226;2023-05-07T15:49:16;19.20;96.40
51739;DHT22;37815;52.692;6.226;2023-05-07T15:54:17;19.20;96.40
51739;DHT22;37815;52.692;6.226;2023-05-07T15:59:20;19.20;96.50
51739;DHT22;37815;52.692;6.226;2023-05-07T16:04:21;19.20;96.60
51739;DHT22;37815;52.692;6.226;2023-05-07T16:09:22;19.20;96.60
51739;DHT22;37815;52.692;6.226;2023-05-07T16:14:25;19.10;96.60
51739;DHT22;37815;52.692;6.226;2023-05-07T16:19:25;19.10;96.70
51739;DHT22;37815;52.692;6.226;2023-05-07T16:24:26;19.10;96.70
51739;DHT22;37815;52.692;6.226;2023-05-07T16:29:26;19.10;97.00
51739;DHT22;37815;52.692;6.226;2023-05-07T16:34:27;19.10;96.70
51739;DHT22;37815;52.692;6.226;2023-05-07T16:39:28;19.10;96.70
51739;DHT22;37815;52.692;6.226;2023-05-07T16:44:28;19.20;96.80
51739;DHT22;37815;52.692;6.226;2023-05-07T16:49:29;19.10;96.70
51739;DHT22;37815;52.692;6.226;2023-05-07T16:54:29;19.10;96.70
51739;DHT22;37815;52.692;6.226;2023-05-07T16:59:30;19.10;96.80
51739;DHT22;37815;52.692;6.226;2023-05-07T17:04:32;19.10;96.80
51739;DHT22;37815;52.692;6.226;2023-05-07T17:09:33;19.10;96.80
51739;DHT22;37815;52.692;6.226;2023-05-07T17:14:33;19.10;96.80
51739;DHT22;37815;52.692;6.226;2023-05-07T17:19:37;19.10;96.80
51739;DHT22;37815;52.692;6.226;2023-05-07T17:24:37;19.10;96.90
51739;DHT22;37815;52.692;6.226;2023-05-07T17:29:39;19.00;96.90
51739;DHT22;37815;52.692;6.226;2023-05-07T17:34:40;19.00;96.90
51739;DHT22;37815;52.692;6.226;2023-05-07T17:39:40;19.00;96.90
51739;DHT22;37815;52.692;6.226;2023-05-07T17:44:41;19.00;96.90
51739;DHT22;37815;52.692;6.226;2023-05-07T17:49:42;19.00;96.90
51739;DHT22;37815;52.692;6.226;2023-05-07T17:54:42;19.10;96.90
51739;DHT22;37815;52.692;6.226;2023-05-07T17:59:43;19.00;96.90
51739;DHT22;37815;52.692;6.226;2023-05-07T18:04:43;19.00;96.90
51739;DHT22;37815;52.692;6.226;2023-05-07T18:09:56;19.00;97.00
51739;DHT22;37815;52.692;6.226;2023-05-07T18:14:56;19.00;97.00
51739;DHT22;37815;52.692;6.226;2023-05-07T18:19:57;18.90;97.00
51739;DHT22;37815;52.692;6.226;2023-05-07T18:24:59;18.90;97.00
51739;DHT22;37815;52.692;6.226;2023-05-07T18:30:00;18.90;97.10
51739;DHT22;37815;52.692;6.226;2023-05-07T18:35:00;18.80;97.10
51739;DHT22;37815;52.692;6.226;2023-05-07T18:40:01;18.80;97.10
51739;DHT22;37815;52.692;6.226;2023-05-07T18:45:04;18.80;97.10
51739;DHT22;37815;52.692;6.226;2023-05-07T18:50:05;18.70;97.20
51739;DHT22;37815;52.692;6.226;2023-05-07T18:55:06;18.70;97.20
51739;DHT22;37815;52.692;6.226;2023-05-07T19:00:07;18.70;97.20
51739;DHT22;37815;52.692;6.226;2023-05-07T19:05:08;18.70;97.30
51739;DHT22;37815;52.692;6.226;2023-05-07T19:10:09;18.60;97.30
51739;DHT22;37815;52.692;6.226;2023-05-07T19:15:10;18.60;97.30
51739;DHT22;37815;52.692;6.226;2023-05-07T19:20:11;18.50;97.30
51739;DHT22;37815;52.692;6.226;2023-05-07T19:25:12;18.50;97.30
51739;DHT22;37815;52.692;6.226;2023-05-07T19:30:13;18.10;97.50
51739;DHT22;37815;52.692;6.226;2023-05-07T19:35:13;17.80;97.80
51739;DHT22;37815;52.692;6.226;2023-05-07T19:40:15;17.90;97.90
51739;DHT22;37815;52.692;6.226;2023-05-07T19:45:15;18.00;97.80
51739;DHT22;37815;52.692;6.226;2023-05-07T19:50:16;18.00;97.60
51739;DHT22;37815;52.692;6.226;2023-05-07T19:55:17;18.00;97.60
51739;DHT22;37815;52.692;6.226;2023-05-07T20:00:17;18.00;97.50
51739;DHT22;37815;52.692;6.226;2023-05-07T20:05:20;18.10;97.50
51739;DHT22;37815;52.692;6.226;2023-05-07T20:10:21;18.10;97.50
51739;DHT22;37815;52.692;6.226;2023-05-07T20:15:22;18.10;97.50
51739;DHT22;37815;52.692;6.226;2023-05-07T20:20:22;18.00;97.40
51739;DHT22;37815;52.692;6.226;2023-05-07T20:25:23;18.00;97.40
51739;DHT22;37815;52.692;6.226;2023-05-07T20:30:28;18.00;97.40
51739;DHT22;37815;52.692;6.226;2023-05-07T20:35:30;18.00;97.40
51739;DHT22;37815;52.692;6.226;2023-05-07T20:40:31;17.90;97.50
51739;DHT22;37815;52.692;6.226;2023-05-07T20:45:33;17.90;97.60
51739;DHT22;37815;52.692;6.226;2023-05-07T20:50:34;17.90;97.60
51739;DHT22;37815;52.692;6.226;2023-05-07T20:55:35;17.90;97.60
51739;DHT22;37815;52.692;6.226;2023-05-07T21:00:36;17.90;97.60
51739;DHT22;37815;52.692;6.226;2023-05-07T21:05:38;17.90;97.60
51739;DHT22;37815;52.692;6.226;2023-05-07T21:10:39;17.80;97.60
51739;DHT22;37815;52.692;6.226;2023-05-07T21:15:42;17.90;97.60
51739;DHT22;37815;52.692;6.226;2023-05-07T21:20:43;17.80;97.60
51739;DHT22;37815;52.692;6.226;2023-05-07T21:25:44;17.80;97.70
51739;DHT22;37815;52.692;6.226;2023-05-07T21:30:46;17.80;97.60
51739;DHT22;37815;52.692;6.226;2023-05-07T21:35:48;17.80;97.70
51739;DHT22;37815;52.692;6.226;2023-05-07T21:40:48;17.80;97.70
51739;DHT22;37815;52.692;6.226;2023-05-07T21:45:49;17.70;97.60
51739;DHT22;37815;52.692;6.226;2023-05-07T21:51:00;17.70;97.70
51739;DHT22;37815;52.692;6.226;2023-05-07T21:56:01;17.70;97.70
51739;DHT22;37815;52.692;6.226;2023-05-07T22:01:04;17.70;97.70
51739;DHT22;37815;52.692;6.226;2023-05-07T22:06:05;17.70;97.70
51739;DHT22;37815;52.692;6.226;2023-05-07T22:11:05;17.60;97.70
51739;DHT22;37815;52.692;6.226;2023-05-07T22:16:06;17.60;97.70
51739;DHT22;37815;52.692;6.226;2023-05-07T22:21:07;17.60;97.70
51739;DHT22;37815;52.692;6.226;2023-05-07T22:26:11;17.70;97.70
51739;DHT22;37815;52.692;6.226;2023-05-07T22:31:12;17.60;97.80
51739;DHT22;37815;52.692;6.226;2023-05-07T22:36:13;17.50;97.70
51739;DHT22;37815;52.692;6.226;2023-05-07T22:41:13;17.50;97.70
51739;DHT22;37815;52.692;6.226;2023-05-07T22:46:14;17.50;97.80
51739;DHT22;37815;52.692;6.226;2023-05-07T22:51:14;17.50;97.80
51739;DHT22;37815;52.692;6.226;2023-05-07T22:56:15;17.50;97.80
51739;DHT22;37815;52.692;6.226;2023-05-07T23:01:16;17.50;97.80
51739;DHT22;37815;52.692;6.226;2023-05-07T23:06:18;17.50;97.80
51739;DHT22;37815;52.692;6.226;2023-05-07T23:11:18;17.40;97.80
51739;DHT22;37815;52.692;6.226;2023-05-07T23:16:19;17.40;97.80
51739;DHT22;37815;52.692;6.226;2023-05-07T23:21:20;17.40;97.80
51739;DHT22;37815;52.692;6.226;2023-05-07T23:26:20;17.40;97.80
51739;DHT22;37815;52.692;6.226;2023-05-07T23:31:21;17.40;97.80
51739;DHT22;37815;52.692;6.226;2023-05-07T23:36:21;17.40;97.80
51739;DHT22;37815;52.692;6.226;2023-05-07T23:41:22;17.30;97.80
51739;DHT22;37815;52.692;6.226;2023-05-07T23:46:23;17.30;97.80
51739;DHT22;37815;52.692;6.226;2023-05-07T23:51:24;17.30;97.80
51739;DHT22;37815;52.692;6.226;2023-05-07T23:56:24;17.30;97.80
